createdAt,value
2018-09-18T00:01:03.499Z,21.33
2018-09-18T00:03:31.183Z,21.34
2018-09-18T00:05:58.868Z,21.33
2018-09-18T00:08:26.558Z,21.29
2018-09-18T00:10:54.218Z,21.30
2018-09-18T00:13:21.914Z,21.27
2018-09-18T00:15:49.566Z,21.28
2018-09-18T00:18:17.223Z,21.31
2018-09-18T00:20:44.871Z,21.30
2018-09-18T00:23:12.525Z,21.29
2018-09-18T00:25:40.240Z,21.17
2018-09-18T00:28:07.889Z,21.15
2018-09-18T00:30:35.541Z,21.23
2018-09-18T00:33:03.208Z,21.19
2018-09-18T00:35:30.844Z,21.17
2018-09-18T00:37:58.481Z,21.14
2018-09-18T00:40:26.096Z,21.15
2018-09-18T00:42:53.755Z,21.15
2018-09-18T00:45:21.394Z,21.19
2018-09-18T00:47:49.156Z,21.18
2018-09-18T00:50:16.835Z,21.12
2018-09-18T00:52:44.497Z,21.10
2018-09-18T00:55:12.201Z,21.13
2018-09-18T00:57:39.887Z,21.10
2018-09-18T01:00:07.539Z,21.15
2018-09-18T01:02:35.275Z,21.07
2018-09-18T01:05:02.993Z,21.06
2018-09-18T01:07:30.703Z,21.03
2018-09-18T01:09:58.381Z,21.02
2018-09-18T01:12:26.029Z,21.01
2018-09-18T01:14:53.715Z,21.04
2018-09-18T01:17:21.533Z,21.06
2018-09-18T01:19:49.259Z,21.14
2018-09-18T01:22:16.878Z,21.11
2018-09-18T01:24:44.722Z,21.08
2018-09-18T01:27:12.652Z,21.07
2018-09-18T01:29:40.433Z,21.06
2018-09-18T01:32:08.323Z,21.07
2018-09-18T01:34:36.286Z,21.03
2018-09-18T01:37:04.370Z,21.11
2018-09-18T01:39:32.414Z,21.12
2018-09-18T01:42:00.005Z,21.10
2018-09-18T01:44:27.895Z,21.12
2018-09-18T01:46:55.536Z,21.16
2018-09-18T01:49:23.255Z,21.15
2018-09-18T01:51:50.931Z,21.09
2018-09-18T01:54:18.664Z,21.10
2018-09-18T01:56:46.412Z,21.10
2018-09-18T01:59:14.017Z,21.00
2018-09-18T02:01:41.644Z,21.04
2018-09-18T02:04:09.318Z,20.94
2018-09-18T02:06:37.014Z,20.95
2018-09-18T02:09:05.480Z,20.93
2018-09-18T02:11:33.186Z,20.97
2018-09-18T02:14:00.917Z,20.97
2018-09-18T02:16:28.592Z,20.94
2018-09-18T02:18:56.394Z,20.97
2018-09-18T02:21:24.109Z,20.96
2018-09-18T02:23:51.805Z,20.96
2018-09-18T02:26:19.840Z,20.97
2018-09-18T02:28:47.609Z,20.96
2018-09-18T02:31:15.295Z,20.94
2018-09-18T02:33:42.952Z,20.93
2018-09-18T02:36:10.656Z,20.96
2018-09-18T02:38:38.322Z,20.91
2018-09-18T02:41:06.117Z,20.89
2018-09-18T02:43:33.862Z,20.92
2018-09-18T02:46:01.718Z,20.91
2018-09-18T02:48:29.383Z,20.91
2018-09-18T02:50:57.045Z,20.87
2018-09-18T02:53:24.715Z,20.82
2018-09-18T02:55:52.933Z,20.87
2018-09-18T02:58:20.654Z,20.89
2018-09-18T03:00:48.334Z,20.87
2018-09-18T03:03:16.054Z,20.83
2018-09-18T03:05:43.779Z,20.72
2018-09-18T03:08:11.489Z,20.58
2018-09-18T03:10:39.170Z,20.49
2018-09-18T03:13:06.904Z,20.50
2018-09-18T03:15:34.536Z,20.53
2018-09-18T03:18:02.168Z,20.46
2018-09-18T03:20:29.835Z,20.43
2018-09-18T03:22:57.474Z,20.46
2018-09-18T03:25:25.149Z,20.42
2018-09-18T03:27:52.805Z,20.48
2018-09-18T03:30:20.565Z,20.49
2018-09-18T03:32:48.334Z,20.41
2018-09-18T03:35:16.031Z,20.32
2018-09-18T03:37:43.667Z,20.25
2018-09-18T03:40:11.303Z,20.12
2018-09-18T03:42:39.027Z,20.08
2018-09-18T03:45:06.658Z,20.02
2018-09-18T03:47:34.275Z,19.99
2018-09-18T03:50:01.927Z,19.92
2018-09-18T03:52:29.540Z,19.89
2018-09-18T03:54:57.199Z,19.86
2018-09-18T03:57:24.853Z,19.82
2018-09-18T03:59:52.544Z,19.77
2018-09-18T04:02:20.162Z,19.78
2018-09-18T04:04:47.816Z,19.70
2018-09-18T04:07:15.490Z,19.69
2018-09-18T04:09:43.172Z,19.64
2018-09-18T04:12:10.924Z,19.60
2018-09-18T04:14:38.580Z,19.56
2018-09-18T04:17:06.225Z,19.55
2018-09-18T04:19:33.829Z,19.55
2018-09-18T04:22:01.537Z,19.56
2018-09-18T04:24:29.360Z,19.49
2018-09-18T04:26:56.980Z,19.44
2018-09-18T04:29:24.654Z,19.48
2018-09-18T04:31:52.301Z,19.48
2018-09-18T04:34:20.143Z,19.35
2018-09-18T04:36:47.825Z,19.32
2018-09-18T04:39:19.017Z,19.31
2018-09-18T04:41:48.802Z,19.28
2018-09-18T04:44:18.591Z,19.23
2018-09-18T04:46:48.797Z,19.18
2018-09-18T04:49:18.581Z,19.16
2018-09-18T04:51:46.522Z,19.13
2018-09-18T04:54:14.181Z,19.17
2018-09-18T04:56:41.789Z,19.18
2018-09-18T04:59:09.399Z,19.18
2018-09-18T05:01:37.136Z,19.10
2018-09-18T05:04:04.907Z,19.02
2018-09-18T05:06:32.764Z,18.99
2018-09-18T05:09:00.750Z,19.00
2018-09-18T05:11:28.623Z,19.02
2018-09-18T05:13:56.765Z,19.03
2018-09-18T05:16:24.672Z,19.10
2018-09-18T05:18:52.634Z,19.09
2018-09-18T05:21:20.608Z,19.13
2018-09-18T05:23:48.572Z,19.13
2018-09-18T05:26:16.521Z,19.19
2018-09-18T05:28:44.394Z,19.21
2018-09-18T05:31:12.340Z,19.25
2018-09-18T05:33:40.189Z,19.31
2018-09-18T05:36:08.026Z,19.34
2018-09-18T05:38:35.880Z,19.38
2018-09-18T05:41:04.035Z,19.44
2018-09-18T05:43:31.949Z,19.47
2018-09-18T05:45:59.790Z,19.50
2018-09-18T05:48:32.380Z,19.51
2018-09-18T05:51:00.354Z,19.59
2018-09-18T05:53:28.361Z,19.62
2018-09-18T05:55:56.217Z,19.69
2018-09-18T05:58:24.085Z,19.78
2018-09-18T06:00:51.947Z,19.87
2018-09-18T06:03:19.839Z,19.99
2018-09-18T06:05:47.784Z,20.09
2018-09-18T06:08:15.695Z,20.13
2018-09-18T06:10:43.518Z,20.22
2018-09-18T06:13:11.508Z,20.27
2018-09-18T06:15:39.409Z,20.30
2018-09-18T06:18:07.238Z,20.35
2018-09-18T06:20:35.136Z,20.34
2018-09-18T06:23:02.985Z,20.43
2018-09-18T06:25:30.910Z,20.45
2018-09-18T06:27:58.717Z,20.53
2018-09-18T06:30:26.490Z,20.57
2018-09-18T06:32:54.472Z,20.64
2018-09-18T06:35:22.564Z,20.80
2018-09-18T06:37:50.428Z,20.93
2018-09-18T06:40:18.308Z,21.02
2018-09-18T06:42:46.407Z,21.09
2018-09-18T06:45:14.519Z,21.22
2018-09-18T06:47:42.489Z,21.43
2018-09-18T06:50:10.405Z,21.58
2018-09-18T06:52:38.361Z,21.74
2018-09-18T06:55:06.509Z,21.97
2018-09-18T06:57:34.391Z,22.24
2018-09-18T07:00:02.316Z,22.65
2018-09-18T07:02:30.186Z,22.88
2018-09-18T07:04:58.041Z,23.22
2018-09-18T07:07:25.896Z,23.68
2018-09-18T07:09:53.693Z,24.01
2018-09-18T07:12:21.548Z,24.32
2018-09-18T07:14:49.529Z,24.62
2018-09-18T07:17:17.433Z,24.90
2018-09-18T07:19:45.336Z,25.06
2018-09-18T07:22:13.440Z,25.37
2018-09-18T07:24:41.474Z,25.63
2018-09-18T07:27:09.320Z,26.09
2018-09-18T07:29:37.154Z,26.46
2018-09-18T07:32:05.117Z,26.87
2018-09-18T07:34:33.033Z,27.37
2018-09-18T07:37:00.890Z,27.86
2018-09-18T07:39:28.725Z,28.21
2018-09-18T07:41:56.769Z,28.67
2018-09-18T07:44:24.670Z,29.14
2018-09-18T07:46:52.545Z,29.53
2018-09-18T07:49:20.374Z,30.06
2018-09-18T07:51:48.201Z,30.67
2018-09-18T07:54:16.073Z,31.25
2018-09-18T07:56:44.165Z,32.08
2018-09-18T07:59:12.211Z,32.62
2018-09-18T08:01:40.058Z,33.19
2018-09-18T08:04:07.892Z,33.02
2018-09-18T08:06:35.753Z,33.13
2018-09-18T08:09:05.750Z,33.82
2018-09-18T08:11:33.729Z,34.63
2018-09-18T08:14:01.713Z,34.71
2018-09-18T08:16:29.772Z,35.12
2018-09-18T08:18:57.844Z,35.17
2018-09-18T08:21:25.630Z,35.33
2018-09-18T08:23:53.445Z,35.51
2018-09-18T08:26:21.340Z,36.01
2018-09-18T08:28:49.241Z,35.47
2018-09-18T08:31:17.083Z,35.86
2018-09-18T08:33:44.972Z,36.04
2018-09-18T08:36:12.850Z,36.62
2018-09-18T08:38:40.507Z,36.91
2018-09-18T08:41:08.258Z,37.35
2018-09-18T08:43:35.978Z,37.14
2018-09-18T08:46:03.683Z,36.82
2018-09-18T08:48:32.025Z,37.07
2018-09-18T08:51:00.921Z,36.81
2018-09-18T08:53:29.122Z,36.67
2018-09-18T08:55:56.902Z,37.03
2018-09-18T08:58:25.122Z,36.78
2018-09-18T09:00:53.028Z,36.61
2018-09-18T09:03:21.043Z,36.88
2018-09-18T09:05:48.978Z,36.48
2018-09-18T09:08:16.985Z,36.65
2018-09-18T09:10:45.008Z,36.91
2018-09-18T09:13:12.863Z,37.06
2018-09-18T09:15:41.147Z,36.65
2018-09-18T09:18:09.120Z,36.37
2018-09-18T09:20:37.088Z,36.38
2018-09-18T09:23:05.072Z,36.77
2018-09-18T09:25:32.877Z,36.60
2018-09-18T09:28:00.788Z,36.20
2018-09-18T09:30:28.637Z,36.22
2018-09-18T09:32:56.663Z,35.96
2018-09-18T09:35:31.289Z,36.04
2018-09-18T09:37:59.180Z,35.84
2018-09-18T09:40:27.109Z,36.33
2018-09-18T09:42:55.016Z,36.45
2018-09-18T09:45:22.901Z,35.96
2018-09-18T09:47:50.930Z,35.66
2018-09-18T09:50:18.802Z,35.40
2018-09-18T09:52:46.908Z,35.28
2018-09-18T09:55:14.748Z,35.54
2018-09-18T09:57:42.624Z,35.77
2018-09-18T10:00:15.946Z,35.93
2018-09-18T10:02:45.759Z,36.35
2018-09-18T10:05:13.952Z,36.20
2018-09-18T10:07:42.114Z,36.49
2018-09-18T10:10:10.203Z,36.56
2018-09-18T10:12:38.348Z,36.79
2018-09-18T10:15:06.982Z,36.18
2018-09-18T10:17:34.930Z,36.40
2018-09-18T10:20:02.882Z,37.37
2018-09-18T10:22:30.775Z,37.39
2018-09-18T10:24:58.773Z,37.67
2018-09-18T10:27:26.725Z,37.67
2018-09-18T10:29:54.590Z,37.97
2018-09-18T10:32:22.538Z,38.15
2018-09-18T10:34:50.321Z,38.39
2018-09-18T10:37:18.183Z,37.75
2018-09-18T10:39:46.101Z,37.76
2018-09-18T10:42:14.212Z,37.96
2018-09-18T10:44:42.021Z,38.89
2018-09-18T10:47:09.721Z,38.43
2018-09-18T10:49:37.422Z,38.63
2018-09-18T10:52:05.123Z,39.07
2018-09-18T10:54:32.788Z,38.51
2018-09-18T10:57:00.492Z,38.92
2018-09-18T10:59:28.148Z,40.14
2018-09-18T11:01:55.886Z,40.13
2018-09-18T11:04:23.677Z,40.80
2018-09-18T11:06:51.649Z,41.21
2018-09-18T11:09:19.414Z,41.02
2018-09-18T11:11:47.135Z,41.72
2018-09-18T11:14:14.830Z,41.83
2018-09-18T11:16:42.528Z,42.01
2018-09-18T11:19:10.417Z,41.53
2018-09-18T11:21:38.708Z,41.53
2018-09-18T11:24:06.361Z,42.02
2018-09-18T11:26:34.607Z,42.10
2018-09-18T11:29:02.588Z,42.52
2018-09-18T11:31:30.797Z,42.70
2018-09-18T11:33:58.598Z,43.59
2018-09-18T11:36:27.346Z,42.95
2018-09-18T11:38:55.550Z,42.67
2018-09-18T11:41:23.750Z,41.83
2018-09-18T11:43:51.617Z,43.00
2018-09-18T11:46:19.711Z,43.60
2018-09-18T11:48:47.753Z,43.54
2018-09-18T11:51:15.726Z,43.86
2018-09-18T11:53:43.756Z,44.08
2018-09-18T11:56:11.596Z,44.04
2018-09-18T11:58:39.525Z,42.82
2018-09-18T12:01:07.519Z,42.35
2018-09-18T12:03:35.502Z,42.94
2018-09-18T12:06:03.467Z,43.31
2018-09-18T12:08:31.482Z,43.84
2018-09-18T12:10:59.460Z,43.27
2018-09-18T12:13:27.405Z,42.60
2018-09-18T12:15:55.278Z,42.18
2018-09-18T12:18:23.133Z,42.65
2018-09-18T12:20:51.050Z,43.32
2018-09-18T12:23:19.080Z,43.08
2018-09-18T12:25:46.938Z,43.70
2018-09-18T12:28:14.949Z,43.52
2018-09-18T12:30:43.229Z,43.31
2018-09-18T12:33:11.081Z,43.32
2018-09-18T12:35:39.139Z,43.90
2018-09-18T12:38:07.252Z,44.18
2018-09-18T12:40:35.196Z,43.68
2018-09-18T12:43:03.232Z,43.93
2018-09-18T12:45:31.041Z,44.53
2018-09-18T12:47:59.039Z,44.51
2018-09-18T12:50:26.926Z,45.52
2018-09-18T12:52:54.849Z,46.30
2018-09-18T12:55:22.736Z,46.90
2018-09-18T12:57:50.575Z,46.29
2018-09-18T13:00:18.610Z,46.23
2018-09-18T13:02:46.427Z,45.85
2018-09-18T13:05:14.482Z,46.58
2018-09-18T13:07:42.708Z,46.76
2018-09-18T13:10:10.772Z,46.55
2018-09-18T13:12:38.693Z,45.82
2018-09-18T13:15:06.618Z,45.10
2018-09-18T13:17:34.625Z,44.87
2018-09-18T13:20:02.602Z,44.88
2018-09-18T13:22:30.892Z,45.08
2018-09-18T13:24:58.927Z,44.70
2018-09-18T13:27:26.746Z,45.00
2018-09-18T13:29:54.638Z,44.15
2018-09-18T13:32:22.525Z,44.18
2018-09-18T13:34:50.483Z,44.10
2018-09-18T13:37:18.417Z,44.44
2018-09-18T13:39:46.460Z,44.62
2018-09-18T13:42:14.489Z,44.66
2018-09-18T13:44:42.359Z,45.07
2018-09-18T13:47:11.147Z,44.77
2018-09-18T13:49:39.122Z,44.02
2018-09-18T13:52:07.506Z,44.42
2018-09-18T13:54:35.553Z,44.13
2018-09-18T13:57:03.546Z,44.20
2018-09-18T13:59:31.463Z,44.16
2018-09-18T14:02:00.018Z,43.87
2018-09-18T14:04:28.026Z,44.00
2018-09-18T14:06:56.157Z,44.04
2018-09-18T14:09:24.575Z,44.31
2018-09-18T14:11:52.525Z,44.73
2018-09-18T14:14:21.108Z,45.11
2018-09-18T14:16:49.448Z,45.34
2018-09-18T14:19:17.702Z,45.35
2018-09-18T14:21:45.911Z,44.12
2018-09-18T14:24:13.758Z,42.74
2018-09-18T14:26:42.023Z,42.39
2018-09-18T14:29:10.046Z,41.89
2018-09-18T14:31:38.336Z,41.58
2018-09-18T14:34:06.517Z,41.87
2018-09-18T14:36:34.807Z,42.40
2018-09-18T14:39:04.529Z,41.85
2018-09-18T14:41:32.525Z,42.04
2018-09-18T14:44:00.403Z,41.95
2018-09-18T14:46:28.717Z,41.52
2018-09-18T14:48:56.635Z,41.11
2018-09-18T14:51:24.794Z,41.14
2018-09-18T14:53:52.962Z,41.17
2018-09-18T14:56:20.750Z,41.95
2018-09-18T14:58:48.599Z,42.62
2018-09-18T15:01:16.746Z,42.46
2018-09-18T15:03:44.576Z,42.13
2018-09-18T15:06:12.551Z,40.83
2018-09-18T15:08:40.639Z,40.78
2018-09-18T15:11:08.480Z,40.65
2018-09-18T15:13:36.357Z,40.54
2018-09-18T15:16:04.338Z,40.99
2018-09-18T15:18:32.486Z,40.77
2018-09-18T15:21:00.360Z,40.41
2018-09-18T15:23:28.241Z,40.05
2018-09-18T15:25:56.500Z,39.50
2018-09-18T15:28:24.389Z,38.76
2018-09-18T15:30:52.338Z,39.10
2018-09-18T15:33:20.242Z,39.63
2018-09-18T15:35:48.283Z,39.80
2018-09-18T15:38:16.566Z,39.91
2018-09-18T15:40:44.469Z,39.50
2018-09-18T15:43:12.228Z,38.67
2018-09-18T15:45:40.237Z,38.09
2018-09-18T15:48:08.086Z,37.50
2018-09-18T15:50:35.844Z,37.34
2018-09-18T15:53:03.576Z,36.79
2018-09-18T15:55:31.336Z,36.71
2018-09-18T15:57:59.095Z,36.10
2018-09-18T16:00:26.853Z,35.15
2018-09-18T16:02:54.667Z,34.30
2018-09-18T16:05:22.389Z,33.69
2018-09-18T16:07:50.132Z,33.13
2018-09-18T16:10:17.796Z,32.62
2018-09-18T16:12:45.535Z,32.26
2018-09-18T16:15:13.318Z,32.18
2018-09-18T16:17:40.955Z,31.75
2018-09-18T16:20:08.659Z,31.53
2018-09-18T16:22:36.350Z,31.34
2018-09-18T16:25:04.172Z,31.01
2018-09-18T16:27:31.865Z,30.78
2018-09-18T16:29:59.514Z,30.51
2018-09-18T16:32:27.248Z,30.21
2018-09-18T16:34:54.915Z,30.21
2018-09-18T16:37:22.588Z,30.23
2018-09-18T16:39:50.418Z,30.11
2018-09-18T16:42:18.091Z,30.27
2018-09-18T16:44:45.751Z,30.32
2018-09-18T16:47:13.426Z,30.32
2018-09-18T16:49:41.237Z,30.30
2018-09-18T16:52:08.934Z,30.02
2018-09-18T16:54:36.733Z,29.99
2018-09-18T16:57:04.425Z,29.98
2018-09-18T16:59:32.281Z,29.88
2018-09-18T17:01:59.980Z,29.95
2018-09-18T17:04:27.748Z,29.85
2018-09-18T17:06:55.611Z,29.82
2018-09-18T17:09:23.370Z,29.62
2018-09-18T17:11:51.141Z,29.46
2018-09-18T17:14:18.907Z,29.35
2018-09-18T17:16:46.606Z,29.45
2018-09-18T17:19:14.499Z,29.38
2018-09-18T17:21:42.671Z,29.40
2018-09-18T17:24:10.353Z,29.41
2018-09-18T17:26:38.093Z,29.33
2018-09-18T17:29:17.455Z,29.25
2018-09-18T17:31:45.522Z,29.16
2018-09-18T17:34:13.535Z,29.13
2018-09-18T17:36:41.270Z,29.05
2018-09-18T17:39:09.897Z,28.89
2018-09-18T17:41:37.687Z,28.73
2018-09-18T17:44:05.405Z,28.36
2018-09-18T17:46:33.127Z,28.18
2018-09-18T17:49:00.788Z,27.95
2018-09-18T17:51:28.484Z,27.64
2018-09-18T17:53:56.145Z,27.65
2018-09-18T17:56:23.861Z,27.62
2018-09-18T17:58:51.614Z,27.60
2018-09-18T18:01:19.335Z,27.54
2018-09-18T18:03:47.281Z,27.36
2018-09-18T18:06:14.996Z,27.27
2018-09-18T18:08:42.683Z,27.23
2018-09-18T18:11:10.431Z,27.22
2018-09-18T18:13:38.178Z,27.06
2018-09-18T18:16:05.917Z,27.02
2018-09-18T18:18:34.485Z,26.93
2018-09-18T18:21:02.236Z,26.89
2018-09-18T18:23:29.945Z,26.87
2018-09-18T18:25:57.630Z,26.94
2018-09-18T18:28:25.418Z,26.98
2018-09-18T18:30:53.174Z,27.04
2018-09-18T18:33:20.936Z,27.06
2018-09-18T18:35:48.694Z,27.03
2018-09-18T18:38:16.554Z,27.00
2018-09-18T18:40:44.272Z,26.93
2018-09-18T18:43:12.131Z,26.78
2018-09-18T18:45:39.838Z,26.79
2018-09-18T18:48:07.820Z,26.75
2018-09-18T18:50:35.499Z,26.71
2018-09-18T18:53:03.172Z,26.70
2018-09-18T18:55:30.840Z,26.67
2018-09-18T18:57:58.556Z,26.64
2018-09-18T19:00:26.449Z,26.63
2018-09-18T19:02:54.268Z,26.59
2018-09-18T19:05:22.137Z,26.63
2018-09-18T19:07:49.857Z,26.60
2018-09-18T19:10:17.693Z,26.61
2018-09-18T19:12:45.430Z,26.55
2018-09-18T19:15:13.125Z,26.55
2018-09-18T19:17:40.822Z,26.49
2018-09-18T19:20:08.517Z,26.48
2018-09-18T19:22:36.311Z,26.36
2018-09-18T19:25:04.107Z,26.20
2018-09-18T19:27:33.038Z,26.03
2018-09-18T19:30:00.719Z,25.91
2018-09-18T19:32:28.425Z,25.79
2018-09-18T19:34:56.137Z,25.68
2018-09-18T19:37:23.817Z,25.64
2018-09-18T19:39:51.554Z,25.56
2018-09-18T19:42:19.289Z,25.53
2018-09-18T19:44:47.144Z,25.49
2018-09-18T19:47:14.909Z,25.48
2018-09-18T19:49:42.645Z,25.46
2018-09-18T19:52:11.127Z,25.46
2018-09-18T19:54:39.842Z,25.42
2018-09-18T19:57:07.536Z,25.41
2018-09-18T19:59:35.328Z,25.45
2018-09-18T20:02:03.089Z,25.51
2018-09-18T20:04:30.972Z,25.36
2018-09-18T20:06:58.945Z,25.34
2018-09-18T20:09:26.818Z,25.39
2018-09-18T20:11:54.565Z,25.32
2018-09-18T20:14:22.312Z,25.22
2018-09-18T20:16:50.204Z,25.24
2018-09-18T20:19:17.936Z,25.16
2018-09-18T20:21:45.650Z,25.11
2018-09-18T20:24:13.320Z,24.97
2018-09-18T20:26:40.985Z,24.83
2018-09-18T20:29:08.930Z,24.85
2018-09-18T20:31:36.655Z,24.82
2018-09-18T20:34:04.417Z,24.88
2018-09-18T20:36:32.103Z,24.77
2018-09-18T20:38:59.925Z,24.84
2018-09-18T20:41:27.608Z,24.95
2018-09-18T20:43:55.332Z,25.03
2018-09-18T20:46:23.210Z,25.14
2018-09-18T20:48:50.960Z,25.08
2018-09-18T20:51:18.763Z,25.04
2018-09-18T20:53:46.444Z,25.04
2018-09-18T20:56:14.210Z,25.04
2018-09-18T20:58:41.939Z,25.09
2018-09-18T21:01:09.635Z,25.07
2018-09-18T21:03:37.303Z,25.13
2018-09-18T21:06:05.064Z,25.10
2018-09-18T21:08:32.807Z,25.07
2018-09-18T21:11:00.459Z,25.08
2018-09-18T21:13:28.197Z,24.97
2018-09-18T21:15:55.972Z,24.88
2018-09-18T21:18:24.399Z,24.86
2018-09-18T21:20:52.185Z,24.84
2018-09-18T21:23:19.911Z,24.75
2018-09-18T21:26:11.992Z,24.73
2018-09-18T21:28:39.807Z,24.64
2018-09-18T21:31:07.747Z,24.57
2018-09-18T21:33:35.414Z,24.43
2018-09-18T21:36:03.165Z,24.25
2018-09-18T21:38:31.260Z,24.15
2018-09-18T21:40:58.927Z,24.13
2018-09-18T21:43:27.176Z,24.05
2018-09-18T21:45:54.929Z,23.94
2018-09-18T21:48:22.655Z,23.78
2018-09-18T21:50:50.313Z,23.59
2018-09-18T21:53:18.023Z,23.55
2018-09-18T21:55:45.960Z,23.58
2018-09-18T21:58:13.683Z,23.55
2018-09-18T22:00:41.875Z,23.57
2018-09-18T22:03:09.690Z,23.62
2018-09-18T22:05:37.458Z,23.62
2018-09-18T22:08:05.207Z,23.68
2018-09-18T22:10:32.966Z,23.65
2018-09-18T22:13:01.356Z,23.63
2018-09-18T22:15:29.681Z,23.52
2018-09-18T22:17:57.567Z,23.55
2018-09-18T22:20:25.423Z,23.50
2018-09-18T22:22:53.143Z,23.47
2018-09-18T22:25:21.764Z,23.36
2018-09-18T22:27:49.504Z,23.26
2018-09-18T22:30:17.240Z,23.15
2018-09-18T22:32:45.053Z,23.09
2018-09-18T22:35:12.758Z,23.02
2018-09-18T22:37:40.451Z,23.00
2018-09-18T22:40:08.266Z,22.97
2018-09-18T22:42:35.966Z,22.94
2018-09-18T22:45:03.797Z,22.90
2018-09-18T22:47:31.601Z,22.85
2018-09-18T22:49:59.295Z,22.89
2018-09-18T22:52:26.993Z,22.98
2018-09-18T22:54:54.755Z,22.98
2018-09-18T22:57:22.539Z,22.90
2018-09-18T22:59:50.234Z,22.76
2018-09-18T23:02:17.940Z,22.73
2018-09-18T23:04:45.654Z,22.67
2018-09-18T23:07:13.338Z,22.59
2018-09-18T23:09:41.053Z,22.56
2018-09-18T23:12:08.738Z,22.52
2018-09-18T23:14:36.557Z,22.52
2018-09-18T23:17:04.455Z,22.50
2018-09-18T23:19:32.354Z,22.46
2018-09-18T23:22:00.440Z,22.41
2018-09-18T23:24:28.262Z,22.36
2018-09-18T23:26:55.947Z,22.51
2018-09-18T23:29:23.769Z,22.48
2018-09-18T23:31:51.413Z,22.45
2018-09-18T23:34:19.136Z,22.43
2018-09-18T23:36:46.800Z,22.42
2018-09-18T23:39:14.478Z,22.42
2018-09-18T23:41:42.181Z,22.50
2018-09-18T23:44:09.863Z,22.45
2018-09-18T23:46:37.581Z,22.33
2018-09-18T23:49:05.342Z,22.21
2018-09-18T23:51:33.055Z,22.17
2018-09-18T23:54:00.707Z,22.11
2018-09-18T23:56:28.402Z,22.08
2018-09-18T23:58:56.093Z,22.08
